createdAt,value
2022-09-28T00:14:52.741Z,7.24
2022-09-28T00:30:35.185Z,7.4
2022-09-28T00:46:17.945Z,7.6
2022-09-28T01:02:00.637Z,7.77
2022-09-28T01:17:42.808Z,7.87
2022-09-28T01:33:25.533Z,7.96
2022-09-28T01:49:08.320Z,8.01
2022-09-28T02:04:50.554Z,8.02
2022-09-28T02:20:33.407Z,8.02
2022-09-28T02:36:15.954Z,8.04
2022-09-28T02:51:58.866Z,8.03
2022-09-28T03:07:41.795Z,7.98
2022-09-28T03:23:24.739Z,7.86
2022-09-28T03:39:07.502Z,7.66
2022-09-28T03:54:49.747Z,7.49
2022-09-28T04:10:31.946Z,7.23
2022-09-28T04:26:14.957Z,7.21
2022-09-28T04:41:57.099Z,7.32
2022-09-28T04:57:39.756Z,7.45
2022-09-28T05:13:22.511Z,7.54
2022-09-28T05:29:05.148Z,7.66
2022-09-28T05:44:47.644Z,7.85
2022-09-28T06:00:29.879Z,7.99
2022-09-28T06:16:12.153Z,7.99
2022-09-28T06:31:54.629Z,8.16
2022-09-28T06:47:37.099Z,8.49
2022-09-28T07:03:19.491Z,8.76
2022-09-28T07:19:01.851Z,9.03
2022-09-28T07:34:44.917Z,9.54
2022-09-28T07:50:27.942Z,10.22
2022-09-28T08:06:10.545Z,11
2022-09-28T08:21:53.365Z,12.41
2022-09-28T08:37:35.552Z,13.18
2022-09-28T08:53:17.757Z,14.02
2022-09-28T09:09:00.552Z,14.36
2022-09-28T09:24:43.178Z,13.96
2022-09-28T09:40:25.760Z,14.76
2022-09-28T09:56:07.985Z,18.51
2022-09-28T10:11:50.729Z,21.03
2022-09-28T10:27:33.652Z,20.06
2022-09-28T10:43:15.907Z,17.68
2022-09-28T10:44:03.202Z,17.73
2022-09-28T10:59:45.231Z,15.67
2022-09-28T11:15:27.503Z,14.22
2022-09-28T11:31:09.851Z,13.96
2022-09-28T11:46:52.156Z,14.05
2022-09-28T12:02:34.602Z,13.69
2022-09-28T12:18:16.763Z,12.98
2022-09-28T12:33:59.260Z,12.57
2022-09-28T12:49:41.590Z,12.36
2022-09-28T13:05:24.215Z,11.85
2022-09-28T13:21:07.110Z,11.48
2022-09-28T13:36:49.821Z,11.81
2022-09-28T13:52:32.098Z,12.24
2022-09-28T14:08:14.946Z,12.88
2022-09-28T14:23:57.658Z,13.45
2022-09-28T14:39:40.074Z,13.62
2022-09-28T14:55:22.393Z,13.78
2022-09-28T15:11:04.664Z,13.96
2022-09-28T15:26:47.475Z,13.75
2022-09-28T15:42:30.399Z,13.08
2022-09-28T15:58:12.563Z,12.5
2022-09-28T16:13:55.195Z,11.71
2022-09-28T16:29:37.287Z,10.94
2022-09-28T16:45:19.410Z,10.31
2022-09-28T17:01:01.747Z,9.93
2022-09-28T17:16:44.300Z,9.64
2022-09-28T17:32:27.128Z,9.43
2022-09-28T17:48:09.758Z,9.33
2022-09-28T18:03:52.221Z,9.21
2022-09-28T18:19:35.227Z,9.08
2022-09-28T18:35:18.178Z,8.97
2022-09-28T18:51:00.629Z,8.87
2022-09-28T19:06:43.002Z,8.71
2022-09-28T19:22:25.407Z,8.55
2022-09-28T19:38:08.511Z,8.33
2022-09-28T19:53:51.106Z,8.06
2022-09-28T20:09:34.087Z,7.73
2022-09-28T20:25:16.989Z,7.44
2022-09-28T20:40:59.332Z,7.26
2022-09-28T20:56:41.626Z,7.26
2022-09-28T21:12:23.989Z,7.44
2022-09-28T21:28:06.331Z,7.61
2022-09-28T21:43:49.431Z,7.62
2022-09-28T21:59:32.007Z,7.61
2022-09-28T22:15:14.362Z,7.52
2022-09-28T22:30:57.473Z,7.44
2022-09-28T22:46:40.257Z,7.49
2022-09-28T23:02:22.711Z,7.49
2022-09-28T23:18:05.366Z,7.45
2022-09-28T23:33:48.043Z,7.28
2022-09-28T23:49:30.225Z,6.97
